Flight Track Log - Related Links

Times and Time Zones

All times are in EDT time to prevent confusion due to time zone crossing. See the C-GYGT flight status page for this flight to view local times or setup timezone preferences in your user account.

Time Position Orientation Groundspeed Altitude Reporting Facility
EDT Latitude Longitude Course Direction KTS MPH feet Rate Location/Type
Mon 08:09:40 PM 54.6667 -66.8833 225° Southwest 180 207 9,700  Level Montreal Center
Mon 08:10:40 PM 54.6333 -66.9500 229° Southwest 170 196 11,800 2,050 Climbing Montreal Center
Mon 08:11:40 PM 54.6167 -67.0167 247° West 170 196 13,800 1,950 Climbing Montreal Center
Mon 08:12:40 PM 54.5833 -67.0833 229° Southwest 180 207 15,700 1,900 Climbing Montreal Center
Mon 08:13:40 PM 54.5500 -67.1833 240° Southwest 180 207 17,600 1,200 Climbing Montreal Center
Mon 08:14:40 PM 54.5167 -67.2500 229° Southwest 180 207 18,100 250 Climbing Montreal Center
Mon 08:15:00 PM 54.3646 -67.5673 225° Southwest  Level FlightAware Approximate
Mon 08:15:40 PM 54.4833 -67.3333 235° Southwest 230 265 18,100  Level Montreal Center
Mon 08:16:40 PM 54.4333 -67.4167 224° Southwest 250 288 18,000  Descending Montreal Center
Mon 08:17:40 PM 54.3833 -67.5000 224° Southwest 260 299 18,100  Climbing Montreal Center
Mon 08:18:40 PM 54.3500 -67.6000 240° Southwest 250 288 18,000 -50 Descending Montreal Center
Mon 08:19:40 PM 54.2833 -67.6667 210° Southwest 250 288 18,000  Level Montreal Center
Mon 08:20:40 PM 54.2333 -67.7667 229° Southwest 250 288 18,000  Level Montreal Center
Mon 08:21:40 PM 54.2000 -67.8667 240° Southwest 260 299 18,000  Level Montreal Center
Mon 08:22:40 PM 54.1500 -67.9333 218° Southwest 250 288 18,000  Level Montreal Center
Mon 08:23:40 PM 54.0833 -68.0333 221° Southwest 250 288 18,000  Level Montreal Center
Mon 08:24:40 PM 54.0500 -68.1167 236° Southwest 260 299 18,000  Level Montreal Center
Mon 08:25:40 PM 53.9833 -68.2000 216° Southwest 250 288 18,000  Level Montreal Center
Mon 08:26:40 PM 53.9333 -68.2833 224° Southwest 250 288 18,000  Level Montreal Center
Mon 08:27:40 PM 53.8833 -68.3500 218° Southwest 240 276 18,000  Level Montreal Center
Mon 08:28:40 PM 53.8500 -68.4500 241° Southwest 240 276 18,000  Level Montreal Center
Mon 08:29:40 PM 53.8000 -68.5167 218° Southwest 240 276 18,000  Level Montreal Center
Mon 08:30:40 PM 53.7500 -68.6000 225° Southwest 230 265 18,000  Level Montreal Center
Mon 08:31:40 PM 53.7000 -68.6667 218° Southwest 230 265 18,000  Level Montreal Center
Mon 08:32:40 PM 53.6667 -68.7667 241° Southwest 240 276 18,000  Level Montreal Center
Mon 08:33:40 PM 53.6167 -68.8333 218° Southwest 230 265 18,000  Level Montreal Center
Mon 08:34:40 PM 53.5667 -68.9000 218° Southwest 230 265 18,000  Level Montreal Center
Mon 08:35:40 PM 53.5167 -68.9833 225° Southwest 230 265 18,000  Level Montreal Center
Mon 08:36:40 PM 53.4833 -69.0500 230° Southwest 230 265 18,000  Level Montreal Center
Mon 08:37:40 PM 53.4333 -69.1500 230° Southwest 230 265 18,000  Level Montreal Center
Mon 08:38:40 PM 53.3833 -69.2167 219° Southwest 230 265 18,000  Level Montreal Center
Mon 08:39:40 PM 53.3333 -69.3000 225° Southwest 230 265 18,000  Level Montreal Center
Mon 08:40:40 PM 53.2833 -69.3667 219° Southwest 230 265 18,000  Level Montreal Center
Mon 08:41:40 PM 53.2500 -69.4333 230° Southwest 230 265 18,000  Level Montreal Center
Mon 08:42:40 PM 53.2000 -69.5167 225° Southwest 230 265 18,000  Level Montreal Center
Mon 08:43:40 PM 53.1500 -69.5833 219° Southwest 220 253 18,000  Level Montreal Center
Mon 08:44:40 PM 53.1000 -69.6500 219° Southwest 230 265 18,000  Level Montreal Center
Mon 08:45:40 PM 53.0500 -69.7333 225° Southwest 230 265 18,000  Level Montreal Center
Mon 08:46:40 PM 53.0167 -69.8000 230° Southwest 230 265 18,000  Level Montreal Center
Mon 08:47:40 PM 52.9667 -69.9000 230° Southwest 230 265 18,000  Level Montreal Center
Mon 08:48:40 PM 52.9333 -69.9500 222° Southwest 230 265 18,000  Level Montreal Center
Mon 08:49:40 PM 52.8667 -70.0167 211° Southwest 230 265 18,000  Level Montreal Center
Mon 08:50:40 PM 52.8167 -70.1167 230° Southwest 230 265 18,000  Level Montreal Center
Mon 08:51:40 PM 52.8000 -70.1667 241° Southwest 230 265 18,000  Level Montreal Center
Mon 08:52:40 PM 52.7500 -70.2500 225° Southwest 230 265 18,000  Level Montreal Center
Mon 08:53:40 PM 52.6833 -70.3167 211° Southwest 230 265 18,000  Level Montreal Center
Mon 08:54:40 PM 52.6333 -70.4167 231° Southwest 230 265 18,000  Level Montreal Center
Mon 08:55:40 PM 52.6000 -70.4667 222° Southwest 230 265 18,000  Level Montreal Center
Mon 08:56:40 PM 52.5667 -70.5667 241° Southwest 230 265 18,000  Level Montreal Center
Mon 08:57:40 PM 52.5167 -70.6167 211° Southwest 230 265 18,000  Level Montreal Center
Mon 08:58:40 PM 52.4667 -70.6833 219° Southwest 230 265 18,000  Level Montreal Center
Mon 08:59:40 PM 52.4167 -70.7667 225° Southwest 230 265 18,000  Level Montreal Center
Mon 09:00:40 PM 52.3667 -70.8333 219° Southwest 230 265 18,000  Level Montreal Center
Mon 09:01:40 PM 52.3167 -70.9000 219° Southwest 230 265 18,000  Level Montreal Center
Mon 09:02:40 PM 52.2667 -70.9833 226° Southwest 230 265 18,000  Level Montreal Center
Mon 09:03:40 PM 52.2333 -71.0500 231° Southwest 230 265 18,000  Level Montreal Center
Mon 09:04:40 PM 52.1833 -71.1333 226° Southwest 230 265 18,000  Level Montreal Center
Mon 09:05:40 PM 52.1333 -71.1833 212° Southwest 230 265 18,000  Level Montreal Center
Mon 09:06:40 PM 52.0833 -71.2500 219° Southwest 230 265 18,000  Level Montreal Center
Mon 09:07:40 PM 52.0333 -71.3333 226° Southwest 230 265 18,000  Level Montreal Center
Mon 09:08:40 PM 51.9833 -71.4000 219° Southwest 220 253 18,000  Level Montreal Center
Mon 09:09:40 PM 51.9500 -71.4500 223° Southwest 220 253 18,000  Level Montreal Center
Mon 09:10:40 PM 51.9167 -71.5500 242° Southwest 220 253 18,000  Level Montreal Center
Mon 09:11:40 PM 51.8667 -71.6000 212° Southwest 220 253 18,000  Level Montreal Center
Mon 09:12:40 PM 51.8167 -71.6667 220° Southwest 220 253 18,000  Level Montreal Center
Mon 09:13:40 PM 51.7667 -71.7500 226° Southwest 230 265 18,000  Level Montreal Center
Mon 09:14:40 PM 51.7167 -71.8000 212° Southwest 230 265 18,000  Level Montreal Center
Mon 09:15:40 PM 51.6500 -71.8667 212° Southwest 230 265 18,000  Level Montreal Center
Mon 09:16:40 PM 51.6000 -71.9000 202° Southwest 230 265 18,000  Level Montreal Center
Mon 09:17:40 PM 51.5333 -71.9333 197° South 230 265 18,000  Level Montreal Center
Mon 09:18:40 PM 51.4833 -71.9833 212° Southwest 230 265 18,000  Level Montreal Center
Mon 09:19:40 PM 51.4167 -72.0167 197° South 230 265 18,000  Level Montreal Center
Mon 09:20:40 PM 51.3667 -72.0833 220° Southwest 230 265 18,000  Level Montreal Center
Mon 09:21:40 PM 51.3167 -72.1333 212° Southwest 230 265 18,000  Level Montreal Center
Mon 09:22:40 PM 51.2500 -72.1667 197° South 230 265 18,000  Level Montreal Center
Mon 09:23:40 PM 51.2167 -72.2333 231° Southwest 230 265 18,000  Level Montreal Center
Mon 09:24:40 PM 51.1500 -72.2833 205° Southwest 230 265 18,000  Level Montreal Center
Mon 09:25:40 PM 51.1000 -72.3167 203° Southwest 230 265 18,000  Level Montreal Center
Mon 09:26:40 PM 51.0333 -72.3833 212° Southwest 230 265 18,000  Level Montreal Center
Mon 09:27:40 PM 50.9833 -72.4167 203° Southwest 230 265 18,000  Level Montreal Center
Mon 09:28:40 PM 50.9167 -72.4667 205° Southwest 230 265 18,000  Level Montreal Center
Mon 09:29:40 PM 50.8667 -72.5000 203° Southwest 230 265 18,000  Level Montreal Center
Mon 09:30:40 PM 50.8167 -72.5500 212° Southwest 230 265 18,000  Level Montreal Center
Mon 09:31:40 PM 50.7500 -72.6167 212° Southwest 230 265 18,000  Level Montreal Center
Mon 09:32:40 PM 50.7000 -72.6500 203° Southwest 230 265 18,000  Level Montreal Center
Mon 09:33:40 PM 50.6333 -72.7000 205° Southwest 230 265 18,000  Level Montreal Center
Mon 09:34:40 PM 50.5833 -72.7333 203° Southwest 230 265 18,000  Level Montreal Center
Mon 09:35:40 PM 50.5167 -72.7833 205° Southwest 230 265 18,000  Level Montreal Center
Mon 09:36:40 PM 50.4667 -72.8167 203° Southwest 230 265 18,000 50 Level Montreal Center
Mon 09:37:40 PM 50.4000 -72.8833 213° Southwest 230 265 18,100  Climbing Montreal Center
Mon 09:38:40 PM 50.3500 -72.9333 213° Southwest 230 265 18,000 -50 Descending Montreal Center
Mon 09:39:40 PM 50.2833 -72.9667 198° South 230 265 18,000  Level Montreal Center
Mon 09:40:40 PM 50.2333 -73.0167 213° Southwest 230 265 18,000  Level Montreal Center
Mon 09:41:40 PM 50.1833 -73.0500 203° Southwest 230 265 18,000 50 Level Montreal Center
Mon 09:42:40 PM 50.1167 -73.1000 206° Southwest 230 265 18,100 50 Climbing Montreal Center
Mon 09:43:40 PM 50.0667 -73.1667 221° Southwest 230 265 18,100 -50 Level Montreal Center
Mon 09:44:40 PM 50.0000 -73.1833 189° South 230 265 18,000  Descending Montreal Center
Mon 09:45:40 PM 49.9667 -73.2500 232° Southwest 230 265 18,100  Climbing Montreal Center
Mon 09:46:40 PM 49.9000 -73.2833 198° South 230 265 18,000  Descending Montreal Center
Mon 09:47:40 PM 49.8500 -73.3333 213° Southwest 230 265 18,100  Climbing Montreal Center
Mon 09:48:40 PM 49.7833 -73.3833 206° Southwest 230 265 18,000 -50 Descending Montreal Center
Mon 09:49:40 PM 49.7333 -73.4167 203° Southwest 230 265 18,000  Level Montreal Center
Mon 09:50:40 PM 49.6667 -73.4667 206° Southwest 230 265 18,000 50 Level Montreal Center
Mon 09:51:40 PM 49.6167 -73.5000 203° Southwest 230 265 18,100 50 Climbing Montreal Center
Mon 09:52:40 PM 49.5500 -73.5500 206° Southwest 230 265 18,100  Level Montreal Center
Mon 09:53:40 PM 49.4833 -73.6167 213° Southwest 240 276 18,100 -50 Level Montreal Center
Mon 09:54:40 PM 49.4333 -73.6333 192° South 230 265 18,000  Descending Montreal Center
Mon 09:55:40 PM 49.3833 -73.7000 221° Southwest 240 276 18,100 50 Climbing Montreal Center
Mon 09:56:40 PM 49.3167 -73.7500 206° Southwest 230 265 18,100  Level Montreal Center
Mon 09:58:40 PM 49.2000 -73.8333 205° Southwest 240 276 18,100  Level Montreal Center
Mon 09:59:40 PM 49.1333 -73.8667 198° South 240 276 18,100  Level Montreal Center
Mon 10:00:40 PM 49.0667 -73.9167 206° Southwest 240 276 18,100  Level Montreal Center
Mon 10:01:40 PM 49.0167 -73.9667 213° Southwest 240 276 18,100  Level Montreal Center
Mon 10:02:40 PM 48.9500 -74.0167 206° Southwest 240 276 18,100  Level Montreal Center
Mon 10:03:40 PM 48.9000 -74.0500 204° Southwest 240 276 18,100  Level Montreal Center
Mon 10:04:40 PM 48.8333 -74.1000 206° Southwest 240 276 18,100  Level Montreal Center
Mon 10:05:40 PM 48.7667 -74.1333 198° South 240 276 18,100  Level Montreal Center
Mon 10:06:40 PM 48.7167 -74.1833 213° Southwest 240 276 18,100  Level Montreal Center
Mon 10:07:40 PM 48.6500 -74.2333 206° Southwest 240 276 18,100  Level Montreal Center
Mon 10:08:40 PM 48.6000 -74.2667 204° Southwest 240 276 18,100  Level Montreal Center
Mon 10:09:40 PM 48.5333 -74.3167 206° Southwest 240 276 18,100  Level Montreal Center
Mon 10:10:40 PM 48.4667 -74.3667 206° Southwest 240 276 18,100  Level Montreal Center
Mon 10:11:40 PM 48.4000 -74.4167 206° Southwest 240 276 18,100  Level Montreal Center
Mon 10:12:40 PM 48.3500 -74.4500 204° Southwest 240 276 18,100  Level Montreal Center
Mon 10:13:40 PM 48.2833 -74.5000 207° Southwest 240 276 18,100  Level Montreal Center
Mon 10:14:40 PM 48.2333 -74.5500 214° Southwest 240 276 18,100  Level Montreal Center
Mon 10:15:40 PM 48.1667 -74.5833 198° South 240 276 18,100  Level Montreal Center
Mon 10:16:40 PM 48.1000 -74.6333 207° Southwest 240 276 18,100  Level Montreal Center
Mon 10:17:40 PM 48.0500 -74.6667 204° Southwest 240 276 18,100  Level Montreal Center
Mon 10:18:40 PM 47.9833 -74.7167 207° Southwest 240 276 18,100  Level Montreal Center
Mon 10:19:40 PM 47.9167 -74.7667 207° Southwest 240 276 18,100  Level Montreal Center
Mon 10:20:40 PM 47.8500 -74.8167 207° Southwest 240 276 18,100  Level Montreal Center
Mon 10:21:40 PM 47.8000 -74.8500 204° Southwest 240 276 18,100  Level Montreal Center
Mon 10:22:40 PM 47.7333 -74.9000 207° Southwest 250 288 18,100  Level Montreal Center
Mon 10:23:40 PM 47.6833 -74.9500 214° Southwest 240 276 18,100  Level Montreal Center
Mon 10:24:40 PM 47.6167 -75.0000 207° Southwest 240 276 18,100  Level Montreal Center
Mon 10:25:40 PM 47.5500 -75.0167 190° South 240 276 18,100  Level Montreal Center
Mon 10:26:40 PM 47.4833 -75.0667 207° Southwest 240 276 18,100  Level Montreal Center
Mon 10:27:40 PM 47.4333 -75.1167 214° Southwest 240 276 18,100  Level Montreal Center
Mon 10:28:40 PM 47.3667 -75.1500 199° South 240 276 18,100  Level Montreal Center
Mon 10:29:40 PM 47.3000 -75.2000 207° Southwest 240 276 18,100  Level Montreal Center
Mon 10:30:40 PM 47.2500 -75.2333 204° Southwest 250 288 18,100  Level Montreal Center
Mon 10:31:40 PM 47.1833 -75.2500 190° South 250 288 18,100  Level Montreal Center
Mon 10:32:40 PM 47.1000 -75.2833 195° South 250 288 18,100  Level Montreal Center
Mon 10:33:40 PM 47.0500 -75.3000 193° South 240 276 18,100  Level Montreal Center
Mon 10:34:40 PM 46.9833 -75.3000 180° South 240 276 18,100  Level Montreal Center
Mon 10:35:40 PM 46.9167 -75.3333 199° South 250 288 18,100  Level Montreal Center
Mon 10:36:40 PM 46.8500 -75.3500 190° South 240 276 18,100  Level Montreal Center
Mon 10:37:40 PM 46.7833 -75.3500 180° South 250 288 18,100  Level Montreal Center
Mon 10:38:40 PM 46.7000 -75.3833 195° South 250 288 18,100  Level Montreal Center
Mon 10:39:40 PM 46.6333 -75.4000 190° South 250 288 18,100 -50 Level Montreal Center
Mon 10:40:40 PM 46.5833 -75.4000 180° South 240 276 18,000  Descending Montreal Center
Mon 10:41:40 PM 46.5000 -75.4333 195° South 250 288 18,100 50 Climbing Montreal Center
Mon 10:42:40 PM 46.4333 -75.4500 190° South 240 276 18,100  Level Montreal Center
Mon 10:43:40 PM 46.3667 -75.4500 180° South 240 276 18,100  Level Montreal Center
Mon 10:44:40 PM 46.3000 -75.4833 199° South 240 276 18,100  Level Montreal Center
Mon 10:45:40 PM 46.2333 -75.5000 190° South 240 276 18,100 -100 Level Montreal Center
Mon 10:46:40 PM 46.1667 -75.5000 180° South 240 276 17,900 -750 Descending Montreal Center
Mon 10:47:40 PM 46.1000 -75.4833 170° South 260 299 16,600 -1,500 Descending Montreal Center
Mon 10:48:40 PM 46.0167 -75.4833 180° South 260 299 14,900 -1,700 Descending Montreal Center
Mon 10:49:40 PM 45.9500 -75.4667 170° South 270 311 13,200 -1,800 Descending Montreal Center
Mon 10:50:40 PM 45.8833 -75.4667 180° South 260 299 11,300 -1,850 Descending Montreal Center
Mon 10:51:40 PM 45.8167 -75.4667 180° South 250 288 9,500 -1,900 Descending Montreal Center
Mon 10:52:40 PM 45.7333 -75.4667 180° South 250 288 7,500 -1,850 Descending Montreal Center
Mon 10:53:40 PM 45.6833 -75.4667 180° South 240 276 5,800 -1,700 Descending Montreal Center
Mon 10:54:40 PM 45.6000 -75.4333 164° South 220 253 4,100 -850 Descending Montreal Center
Mon 10:55:40 PM 45.5500 -75.4333 180° South 180 207 4,100  Level Montreal Center
Mon 10:56:40 PM 45.5000 -75.4500 193° South 180 207 4,100 -400 Level Montreal Center
Mon 10:57:40 PM 45.4500 -75.4500 180° South 190 219 3,300 -1,000 Descending Montreal Center
Mon 10:58:40 PM 45.4000 -75.4667 193° South 200 230 2,100 -650 Descending Montreal Center
Mon 10:59:40 PM 45.3667 -75.5167 227° Southwest 160 184 2,000 -200 Descending Montreal Center
Mon 11:00:40 PM 45.3500 -75.5667 245° Southwest 150 173 1,700 -450 Descending Montreal Center
Mon 11:01:40 PM 45.3167 -75.6167 227° Southwest 110 127 1,100 -550 Descending Montreal Center
Mon 11:02:40 PM 45.3000 -75.6333 215° Southwest 100 115 600 -500 Descending Montreal Center

Login

Don't have an account? Register now (free) for customized features, flight alerts, and more!